createdAt,value
2022-11-28T00:00:39.069Z,81.05
2022-11-28T00:01:39.066Z,80.98
2022-11-28T00:02:39.224Z,81.34
2022-11-28T00:03:39.174Z,81.51
2022-11-28T00:04:39.163Z,81.79
2022-11-28T00:05:43.017Z,81.56
2022-11-28T00:06:39.065Z,81.25
2022-11-28T00:07:39.136Z,81.14
2022-11-28T00:08:39.087Z,80.98
2022-11-28T00:09:39.065Z,81.68
2022-11-28T00:10:39.064Z,81.31
2022-11-28T00:11:39.061Z,81.04
2022-11-28T00:12:39.096Z,81.43
2022-11-28T00:13:39.089Z,81.79
2022-11-28T00:14:39.187Z,81.68
2022-11-28T00:15:39.147Z,81.39
2022-11-28T00:16:39.067Z,81.88
2022-11-28T00:17:39.074Z,81.77
2022-11-28T00:18:39.085Z,81.34
2022-11-28T00:19:39.081Z,81.27
2022-11-28T00:20:39.065Z,81.26
2022-11-28T00:21:39.068Z,81.54
2022-11-28T00:22:39.065Z,81.54
2022-11-28T00:23:39.090Z,81.08
2022-11-28T00:24:39.076Z,81.35
2022-11-28T00:25:39.065Z,80.97
2022-11-28T00:26:39.071Z,81.32
2022-11-28T00:27:39.086Z,81.71
2022-11-28T00:28:39.087Z,82.18
2022-11-28T00:29:39.066Z,82.19
2022-11-28T00:30:39.083Z,81.78
2022-11-28T00:31:39.105Z,82.08
2022-11-28T00:32:39.068Z,82.88
2022-11-28T00:33:39.087Z,82.39
2022-11-28T00:34:39.254Z,82.21
2022-11-28T00:35:39.068Z,82.78
2022-11-28T00:36:39.067Z,82.29
2022-11-28T00:37:39.086Z,82.37
2022-11-28T00:38:39.121Z,82.21
2022-11-28T00:39:39.075Z,82.3
2022-11-28T00:40:39.065Z,81.89
2022-11-28T00:41:39.066Z,82
2022-11-28T00:42:39.088Z,82.05
2022-11-28T00:43:39.080Z,82.1
2022-11-28T00:44:39.084Z,82.33
2022-11-28T00:45:39.125Z,82.47
2022-11-28T00:46:39.067Z,82.13
2022-11-28T00:47:39.068Z,82.04
2022-11-28T00:48:39.081Z,81.51
2022-11-28T00:49:39.065Z,81.51
2022-11-28T00:50:39.065Z,82.06
2022-11-28T00:51:39.060Z,81.99
2022-11-28T00:52:39.065Z,81.61
2022-11-28T00:53:39.084Z,81.98
2022-11-28T00:54:39.162Z,81.89
2022-11-28T00:55:39.061Z,81.62
2022-11-28T00:56:39.063Z,81.88
2022-11-28T00:57:39.163Z,81.87
2022-11-28T00:58:39.070Z,81.42
2022-11-28T00:59:39.059Z,80.94
2022-11-28T01:00:39.199Z,81.13
2022-11-28T01:01:39.124Z,80.99
2022-11-28T01:02:39.111Z,81.52
2022-11-28T01:03:39.084Z,80.75
2022-11-28T01:04:39.178Z,80.61
2022-11-28T01:05:39.060Z,80.77
2022-11-28T01:06:39.064Z,80.73
2022-11-28T01:07:39.107Z,80.85
2022-11-28T01:08:39.088Z,81.01
2022-11-28T01:09:39.065Z,81.55
2022-11-28T01:10:39.058Z,81.34
2022-11-28T01:11:39.073Z,81.38
2022-11-28T01:12:39.073Z,81.31
2022-11-28T01:13:39.081Z,81.07
2022-11-28T01:14:39.143Z,81
2022-11-28T01:15:39.061Z,80.75
2022-11-28T01:16:39.162Z,79.86
2022-11-28T01:17:39.065Z,79.93
2022-11-28T01:18:39.086Z,80.4
2022-11-28T01:19:39.085Z,80.56
2022-11-28T01:20:39.070Z,80.42
2022-11-28T01:21:39.066Z,80.51
2022-11-28T01:22:39.069Z,80.38
2022-11-28T01:23:39.085Z,80.26
2022-11-28T01:24:39.212Z,80.12
2022-11-28T01:25:39.071Z,80.16
2022-11-28T01:26:39.061Z,80.3
2022-11-28T01:27:39.078Z,79.98
2022-11-28T01:28:39.080Z,80.25
2022-11-28T01:29:39.071Z,79.98
2022-11-28T01:30:39.075Z,80.12
2022-11-28T01:31:39.161Z,80.11
2022-11-28T01:32:39.072Z,80.08
2022-11-28T01:33:39.080Z,80.05
2022-11-28T01:34:39.201Z,80.56
2022-11-28T01:35:39.063Z,80.27
2022-11-28T01:36:39.064Z,80.01
2022-11-28T01:37:39.066Z,79.77
2022-11-28T01:38:39.077Z,79.87
2022-11-28T01:39:39.067Z,80.18
2022-11-28T01:40:39.066Z,80.55
2022-11-28T01:41:39.073Z,80.83
2022-11-28T01:42:39.066Z,79.99
2022-11-28T01:43:39.086Z,79.83
2022-11-28T01:44:39.174Z,80.05
2022-11-28T01:45:39.067Z,81.08
2022-11-28T01:46:39.090Z,81.65
2022-11-28T01:47:39.067Z,80.66
2022-11-28T01:48:39.085Z,80.51
2022-11-28T01:49:39.065Z,81.32
2022-11-28T01:50:39.067Z,81.34
2022-11-28T01:51:39.061Z,81.24
2022-11-28T01:52:39.069Z,81.35
2022-11-28T01:53:39.083Z,81.14
2022-11-28T01:54:39.124Z,81.06
2022-11-28T01:55:39.063Z,80.9
2022-11-28T01:56:39.058Z,81.08
2022-11-28T01:57:39.066Z,81.33
2022-11-28T01:58:39.088Z,81.01
2022-11-28T01:59:39.062Z,81.01
2022-11-28T02:00:39.172Z,80.67
2022-11-28T02:01:39.111Z,80.2
2022-11-28T02:02:39.121Z,80.69
2022-11-28T02:03:39.085Z,81.19
2022-11-28T02:04:39.110Z,81.21
2022-11-28T02:05:39.063Z,80.76
2022-11-28T02:06:39.060Z,81.04
2022-11-28T02:07:39.115Z,80.98
2022-11-28T02:08:39.086Z,80.64
2022-11-28T02:09:39.062Z,80.28
2022-11-28T02:10:39.130Z,79.87
2022-11-28T02:11:39.058Z,79.8
2022-11-28T02:12:39.058Z,79.83
2022-11-28T02:13:39.097Z,80.12
2022-11-28T02:14:39.144Z,80.15
2022-11-28T02:15:39.066Z,79.52
2022-11-28T02:16:39.139Z,79.73
2022-11-28T02:17:39.066Z,79.7
2022-11-28T02:18:39.070Z,79.72
2022-11-28T02:19:39.061Z,80.1
2022-11-28T02:20:39.061Z,79.49
2022-11-28T02:21:39.057Z,79.81
2022-11-28T02:22:39.066Z,79.29
2022-11-28T02:23:39.154Z,79.47
2022-11-28T02:24:39.313Z,79.7
2022-11-28T02:25:39.072Z,78.8
2022-11-28T02:26:39.067Z,79.08
2022-11-28T02:27:39.063Z,79.58
2022-11-28T02:28:39.084Z,79.53
2022-11-28T02:29:39.161Z,79.06
2022-11-28T02:30:39.075Z,78.52
2022-11-28T02:31:39.196Z,79.09
2022-11-28T02:32:39.065Z,90.82
2022-11-28T02:33:39.073Z,79.54
2022-11-28T02:34:42.063Z,79.52
2022-11-28T02:35:39.064Z,79.64
2022-11-28T02:36:39.064Z,80.1
2022-11-28T02:37:39.066Z,80.2
2022-11-28T02:38:39.072Z,79.51
2022-11-28T02:39:39.078Z,78.96
2022-11-28T02:40:39.068Z,79.22
2022-11-28T02:41:39.069Z,80.12
2022-11-28T02:42:39.065Z,79.8
2022-11-28T02:43:39.083Z,80
2022-11-28T02:44:39.098Z,79.68
2022-11-28T02:45:39.064Z,79.67
2022-11-28T02:46:39.107Z,79.67
2022-11-28T02:47:39.067Z,80.01
2022-11-28T02:48:39.067Z,79.5
2022-11-28T02:49:39.076Z,79.66
2022-11-28T02:50:39.062Z,79.66
2022-11-28T02:51:39.055Z,79.58
2022-11-28T02:52:39.078Z,79.32
2022-11-28T02:53:39.063Z,79.79
2022-11-28T02:54:39.175Z,79.74
2022-11-28T02:55:39.063Z,80.19
2022-11-28T02:56:39.063Z,80.35
2022-11-28T02:57:39.093Z,80.67
2022-11-28T02:58:39.257Z,81.06
2022-11-28T02:59:39.083Z,81.69
2022-11-28T03:00:39.162Z,81.53
2022-11-28T03:01:39.131Z,81.86
2022-11-28T03:02:39.060Z,81.72
2022-11-28T03:03:39.074Z,81.53
2022-11-28T03:04:39.076Z,81.26
2022-11-28T03:05:39.051Z,81.24
2022-11-28T03:06:39.066Z,81.01
2022-11-28T03:07:39.163Z,81.09
2022-11-28T03:08:39.051Z,81
2022-11-28T03:09:39.078Z,80.57
2022-11-28T03:10:39.056Z,80.34
2022-11-28T03:11:39.058Z,80.39
2022-11-28T03:12:39.062Z,80.39
2022-11-28T03:13:39.074Z,80.39
2022-11-28T03:14:39.224Z,80.26
2022-11-28T03:15:39.066Z,80.84
2022-11-28T03:16:39.219Z,80.61
2022-11-28T03:17:39.059Z,80.61
2022-11-28T03:18:39.058Z,80.18
2022-11-28T03:19:39.079Z,80.16
2022-11-28T03:20:39.055Z,80.4
2022-11-28T03:21:39.055Z,80.4
2022-11-28T03:22:39.054Z,80.99
2022-11-28T03:23:39.056Z,82.29
2022-11-28T03:24:39.150Z,82.54
2022-11-28T03:25:39.055Z,82.79
2022-11-28T03:26:39.049Z,82.45
2022-11-28T03:27:39.056Z,82.89
2022-11-28T03:28:43.439Z,82.88
2022-11-28T03:29:39.080Z,82.73
2022-11-28T03:30:39.055Z,82.36
2022-11-28T03:31:39.087Z,82.59
2022-11-28T03:32:39.064Z,82.6
2022-11-28T03:33:39.057Z,83.26
2022-11-28T03:34:39.070Z,84.2
2022-11-28T03:35:39.052Z,84.43
2022-11-28T03:36:39.060Z,84.65
2022-11-28T03:37:39.062Z,85.16
2022-11-28T03:38:39.050Z,84.36
2022-11-28T03:39:39.078Z,84.18
2022-11-28T03:40:39.055Z,83.25
2022-11-28T03:41:39.067Z,82.54
2022-11-28T03:42:39.055Z,82.54
2022-11-28T03:43:39.072Z,82.54
2022-11-28T03:44:39.071Z,82.78
2022-11-28T03:45:39.069Z,82.78
2022-11-28T03:46:39.125Z,83.25
2022-11-28T03:47:39.060Z,83.83
2022-11-28T03:48:39.066Z,84.24
2022-11-28T03:49:39.069Z,84.02
2022-11-28T03:50:39.066Z,84.45
2022-11-28T03:51:39.067Z,84.08
2022-11-28T03:52:39.071Z,84.78
2022-11-28T03:53:39.069Z,84.38
2022-11-28T03:54:39.076Z,84.68
2022-11-28T03:55:39.139Z,84.21
2022-11-28T03:56:39.095Z,84.44
2022-11-28T03:57:39.084Z,83.81
2022-11-28T03:58:39.064Z,83.88
2022-11-28T03:59:39.082Z,83.79
2022-11-28T04:00:39.058Z,83.57
2022-11-28T04:01:39.120Z,83.83
2022-11-28T04:02:39.179Z,83.83
2022-11-28T04:03:39.063Z,84.26
2022-11-28T04:04:39.082Z,83.95
2022-11-28T04:05:39.067Z,84.23
2022-11-28T04:06:39.067Z,83.93
2022-11-28T04:07:39.153Z,84.46
2022-11-28T04:08:39.062Z,85.21
2022-11-28T04:09:39.080Z,84.75
2022-11-28T04:10:39.061Z,84.75
2022-11-28T04:11:39.055Z,84.76
2022-11-28T04:12:39.061Z,84.78
2022-11-28T04:13:39.061Z,84.59
2022-11-28T04:14:39.073Z,84.15
2022-11-28T04:15:39.096Z,84.61
2022-11-28T04:16:39.230Z,84.85
2022-11-28T04:17:39.064Z,84.95
2022-11-28T04:18:39.064Z,85.42
2022-11-28T04:19:39.081Z,84.92
2022-11-28T04:20:39.072Z,84.29
2022-11-28T04:21:39.056Z,84.29
2022-11-28T04:22:39.071Z,83.79
2022-11-28T04:23:39.060Z,83.86
2022-11-28T04:24:39.079Z,83.66
2022-11-28T04:25:39.050Z,83.61
2022-11-28T04:26:39.054Z,83.86
2022-11-28T04:27:39.064Z,84.15
2022-11-28T04:28:39.051Z,84.44
2022-11-28T04:29:39.075Z,84.62
2022-11-28T04:30:39.050Z,84.7
2022-11-28T04:31:39.083Z,84.75
2022-11-28T04:32:39.060Z,84.83
2022-11-28T04:33:39.140Z,84.83
2022-11-28T04:34:39.069Z,84.54
2022-11-28T04:35:39.052Z,84.33
2022-11-28T04:36:39.109Z,83.53
2022-11-28T04:37:39.055Z,84.01
2022-11-28T04:38:39.049Z,83.9
2022-11-28T04:39:39.077Z,84.23
2022-11-28T04:40:39.053Z,84.27
2022-11-28T04:41:39.059Z,84.43
2022-11-28T04:42:39.054Z,84.76
2022-11-28T04:43:39.091Z,84.35
2022-11-28T04:44:39.082Z,84.47
2022-11-28T04:45:39.123Z,84.63
2022-11-28T04:46:39.065Z,84.66
2022-11-28T04:47:39.062Z,84.72
2022-11-28T04:48:39.064Z,84.53
2022-11-28T04:49:39.070Z,84.53
2022-11-28T04:50:39.066Z,84.92
2022-11-28T04:51:39.067Z,84.35
2022-11-28T04:52:39.060Z,84.41
2022-11-28T04:53:39.062Z,84.43
2022-11-28T04:54:39.081Z,83.79
2022-11-28T04:55:39.050Z,84.88
2022-11-28T04:56:39.061Z,85.45
2022-11-28T04:57:39.072Z,85.44
2022-11-28T04:58:39.061Z,85.72
2022-11-28T04:59:39.093Z,85.31
2022-11-28T05:00:39.100Z,84.88
2022-11-28T05:01:39.122Z,84.78
2022-11-28T05:02:39.136Z,84.47
2022-11-28T05:03:42.419Z,84.08
2022-11-28T05:04:39.069Z,84.01
2022-11-28T05:05:39.071Z,83.65
2022-11-28T05:06:39.054Z,83.6
2022-11-28T05:07:39.132Z,83.41
2022-11-28T05:08:39.059Z,82.67
2022-11-28T05:09:39.073Z,82.57
2022-11-28T05:10:39.061Z,82.6
2022-11-28T05:11:39.064Z,82.52
2022-11-28T05:12:39.068Z,82.99
2022-11-28T05:13:39.065Z,82.99
2022-11-28T05:14:39.185Z,83.44
2022-11-28T05:15:39.062Z,83.49
2022-11-28T05:16:39.134Z,83.03
2022-11-28T05:17:41.965Z,82.37
2022-11-28T05:18:39.057Z,82.35
2022-11-28T05:19:39.084Z,82.35
2022-11-28T05:20:39.071Z,82.24
2022-11-28T05:21:39.055Z,82.22
2022-11-28T05:22:39.068Z,82.93
2022-11-28T05:23:39.065Z,83.29
2022-11-28T05:24:39.083Z,83.81
2022-11-28T05:25:39.075Z,83.86
2022-11-28T05:26:39.054Z,83.67
2022-11-28T05:27:39.062Z,83.2
2022-11-28T05:28:39.057Z,82.87
2022-11-28T05:29:39.088Z,82.75
2022-11-28T05:30:39.052Z,83.05
2022-11-28T05:31:39.113Z,83.1
2022-11-28T05:32:39.062Z,82.66
2022-11-28T05:33:39.050Z,82.66
2022-11-28T05:34:39.253Z,82.81
2022-11-28T05:35:39.051Z,83.24
2022-11-28T05:36:39.108Z,84.13
2022-11-28T05:37:39.052Z,84.14
2022-11-28T05:38:39.060Z,83.5
2022-11-28T05:39:39.084Z,83.59
2022-11-28T05:40:39.076Z,83.72
2022-11-28T05:41:39.061Z,82.62
2022-11-28T05:42:39.057Z,82.71
2022-11-28T05:43:39.080Z,82.63
2022-11-28T05:44:39.070Z,83.76
2022-11-28T05:45:39.103Z,83.31
2022-11-28T05:46:39.054Z,82.69
2022-11-28T05:47:39.056Z,82.69
2022-11-28T05:48:39.060Z,82.69
2022-11-28T05:49:39.065Z,82.67
2022-11-28T05:50:40.138Z,83.12
2022-11-28T05:51:39.056Z,83.07
2022-11-28T05:52:39.059Z,83.12
2022-11-28T05:53:39.063Z,82.35
2022-11-28T05:54:39.065Z,82.19
2022-11-28T05:55:39.076Z,83.02
2022-11-28T05:56:42.353Z,83.11
2022-11-28T05:57:39.069Z,82.76
2022-11-28T05:58:39.085Z,82.56
2022-11-28T05:59:39.082Z,83.01
2022-11-28T06:00:39.091Z,83.33
2022-11-28T06:01:39.174Z,83.04
2022-11-28T06:02:39.153Z,83.76
2022-11-28T06:03:39.063Z,83.88
2022-11-28T06:04:39.143Z,83.44
2022-11-28T06:05:42.622Z,84.16
2022-11-28T06:06:39.073Z,85.44
2022-11-28T06:07:39.129Z,83.74
2022-11-28T06:08:39.057Z,83.74
2022-11-28T06:09:39.087Z,83.36
2022-11-28T06:10:39.065Z,83.32
2022-11-28T06:11:39.054Z,83.32
2022-11-28T06:12:39.065Z,83.11
2022-11-28T06:13:39.060Z,83.22
2022-11-28T06:14:39.069Z,82.86
2022-11-28T06:15:39.058Z,82.64
2022-11-28T06:16:39.277Z,81.97
2022-11-28T06:17:39.061Z,81.43
2022-11-28T06:18:39.050Z,82.03
2022-11-28T06:19:39.081Z,82.55
2022-11-28T06:20:39.056Z,83.06
2022-11-28T06:21:39.059Z,83.31
2022-11-28T06:22:39.065Z,83.12
2022-11-28T06:23:39.054Z,83.34
2022-11-28T06:24:39.265Z,83.34
2022-11-28T06:25:39.052Z,83.82
2022-11-28T06:26:39.079Z,82.9
2022-11-28T06:27:39.067Z,82.32
2022-11-28T06:28:39.065Z,83.53
2022-11-28T06:29:39.081Z,83
2022-11-28T06:30:39.056Z,82.83
2022-11-28T06:31:39.096Z,82.46
2022-11-28T06:32:39.067Z,82.7
2022-11-28T06:33:39.056Z,82.86
2022-11-28T06:34:39.083Z,82.25
2022-11-28T06:35:39.064Z,82.05
2022-11-28T06:36:39.071Z,81.99
2022-11-28T06:37:39.060Z,81.74
2022-11-28T06:38:39.067Z,81.85
2022-11-28T06:39:39.080Z,81.8
2022-11-28T06:40:39.051Z,82.03
2022-11-28T06:41:39.054Z,82.54
2022-11-28T06:42:39.058Z,82.26
2022-11-28T06:43:39.065Z,82.39
2022-11-28T06:44:39.096Z,82.99
2022-11-28T06:45:39.103Z,81.83
2022-11-28T06:46:39.064Z,81.83
2022-11-28T06:47:39.051Z,82.56
2022-11-28T06:48:39.062Z,81.9
2022-11-28T06:49:39.068Z,81.92
2022-11-28T06:50:39.050Z,81.92
2022-11-28T06:51:39.080Z,81.36
2022-11-28T06:52:39.048Z,80.99
2022-11-28T06:53:39.066Z,80.99
2022-11-28T06:54:39.066Z,81.71
2022-11-28T06:55:39.049Z,81.63
2022-11-28T06:56:39.057Z,81.15
2022-11-28T06:57:39.050Z,80.95
2022-11-28T06:58:39.063Z,81.25
2022-11-28T06:59:39.080Z,81.17
2022-11-28T07:00:39.068Z,80.4
2022-11-28T07:01:39.136Z,80.88
2022-11-28T07:02:39.138Z,81.1
2022-11-28T07:03:39.060Z,80.71
2022-11-28T07:04:39.072Z,80.72
2022-11-28T07:05:39.085Z,80.72
2022-11-28T07:06:39.056Z,80.58
2022-11-28T07:07:53.224Z,80.13
2022-11-28T07:08:39.061Z,80.72
2022-11-28T07:09:39.069Z,80
2022-11-28T07:10:39.063Z,80.87
2022-11-28T07:11:39.057Z,80.98
2022-11-28T07:12:39.067Z,81.08
2022-11-28T07:13:39.056Z,80.83
2022-11-28T07:14:39.082Z,80.59
2022-11-28T07:15:39.062Z,80.89
2022-11-28T07:16:39.129Z,80.98
2022-11-28T07:17:39.061Z,82.17
2022-11-28T07:18:39.066Z,81.26
2022-11-28T07:19:39.073Z,81.47
2022-11-28T07:20:39.062Z,80.82
2022-11-28T07:21:39.079Z,81.18
2022-11-28T07:22:39.065Z,81.78
2022-11-28T07:23:39.061Z,80.84
2022-11-28T07:24:39.082Z,80.85
2022-11-28T07:25:39.065Z,80.52
2022-11-28T07:26:39.070Z,80.82
2022-11-28T07:27:39.061Z,80.82
2022-11-28T07:28:39.066Z,80.76
2022-11-28T07:29:39.074Z,80.24
2022-11-28T07:30:39.057Z,79.73
2022-11-28T07:31:39.082Z,80.22
2022-11-28T07:32:39.057Z,80.22
2022-11-28T07:33:39.063Z,80.84
2022-11-28T07:34:39.080Z,80.55
2022-11-28T07:35:39.070Z,80.1
2022-11-28T07:36:39.062Z,80.52
2022-11-28T07:37:39.060Z,80.68
2022-11-28T07:38:39.058Z,80.58
2022-11-28T07:39:39.070Z,79.9
2022-11-28T07:40:39.058Z,80.23
2022-11-28T07:41:39.054Z,80.08
2022-11-28T07:42:39.070Z,80.09
2022-11-28T07:43:39.053Z,80.86
2022-11-28T07:44:39.069Z,80.22
2022-11-28T07:45:59.577Z,80.66
2022-11-28T07:46:39.099Z,81.16
2022-11-28T07:47:39.064Z,80.85
2022-11-28T07:48:39.062Z,80.14
2022-11-28T07:49:39.090Z,80.14
2022-11-28T07:50:39.055Z,80.09
2022-11-28T07:51:39.056Z,80.83
2022-11-28T07:52:39.055Z,80.8
2022-11-28T07:53:39.074Z,81.12
2022-11-28T07:54:39.085Z,81.31
2022-11-28T07:55:39.060Z,80.55
2022-11-28T07:57:10.823Z,80.55
2022-11-28T07:57:39.087Z,80.11
2022-11-28T07:58:39.059Z,80.29
2022-11-28T07:59:39.092Z,79.71
2022-11-28T08:00:39.061Z,79.67
2022-11-28T08:01:39.137Z,80.2
2022-11-28T08:02:39.053Z,80.24
2022-11-28T08:03:39.064Z,80.91
2022-11-28T08:04:42.616Z,80.22
2022-11-28T08:05:39.056Z,80.29
2022-11-28T08:06:39.058Z,80.78
2022-11-28T08:07:39.124Z,80.78
2022-11-28T08:08:39.048Z,79.29
2022-11-28T08:09:39.092Z,79.48
2022-11-28T08:10:39.061Z,79.96
2022-11-28T08:11:39.055Z,80.36
2022-11-28T08:12:39.048Z,80.28
2022-11-28T08:13:39.053Z,79.06
2022-11-28T08:14:39.070Z,79.39
2022-11-28T08:15:39.051Z,79.96
2022-11-28T08:16:39.072Z,78.82
2022-11-28T08:17:39.049Z,79.59
2022-11-28T08:18:39.061Z,79.45
2022-11-28T08:19:39.092Z,79.14
2022-11-28T08:20:39.049Z,79.45
2022-11-28T08:21:39.058Z,80.44
2022-11-28T08:22:39.061Z,80.04
2022-11-28T08:23:39.062Z,79.58
2022-11-28T08:24:39.073Z,80
2022-11-28T08:25:39.059Z,80.24
2022-11-28T08:26:39.059Z,79.81
2022-11-28T08:27:39.055Z,79.38
2022-11-28T08:28:39.066Z,79.38
2022-11-28T08:29:39.071Z,79.62
2022-11-28T08:30:39.139Z,79.33
2022-11-28T08:31:39.058Z,79.75
2022-11-28T08:32:39.062Z,79.97
2022-11-28T08:33:39.058Z,79.88
2022-11-28T08:34:39.086Z,79.87
2022-11-28T08:35:39.057Z,79
2022-11-28T08:36:39.069Z,79.36
2022-11-28T08:37:39.060Z,78.62
2022-11-28T08:38:39.053Z,78.88
2022-11-28T08:39:39.070Z,79.23
2022-11-28T08:40:39.058Z,78.85
2022-11-28T08:41:39.066Z,78.99
2022-11-28T08:42:39.053Z,79.71
2022-11-28T08:43:39.057Z,80.14
2022-11-28T08:44:39.100Z,80.18
2022-11-28T08:45:39.092Z,78.77
2022-11-28T08:46:39.069Z,79.25
2022-11-28T08:47:39.143Z,79.35
2022-11-28T08:48:39.063Z,79.41
2022-11-28T08:49:39.084Z,79.84
2022-11-28T08:50:42.539Z,78.87
2022-11-28T08:51:39.072Z,78.36
2022-11-28T08:52:39.072Z,79.07
2022-11-28T08:53:39.056Z,79.14
2022-11-28T08:54:39.070Z,77.96
2022-11-28T08:55:41.807Z,77.94
2022-11-28T08:56:39.066Z,77.78
2022-11-28T08:57:39.058Z,77.78
2022-11-28T08:58:39.064Z,78.94
2022-11-28T08:59:39.235Z,79.23
2022-11-28T09:00:39.061Z,78.77
2022-11-28T09:01:39.125Z,79.51
2022-11-28T09:02:39.076Z,79.07
2022-11-28T09:03:39.075Z,78.96
2022-11-28T09:04:39.067Z,79.05
2022-11-28T09:05:39.072Z,78.83
2022-11-28T09:06:39.066Z,78.83
2022-11-28T09:07:39.116Z,78.06
2022-11-28T09:08:39.066Z,77.73
2022-11-28T09:09:39.060Z,77.73
2022-11-28T09:10:39.068Z,77.01
2022-11-28T09:11:39.067Z,77.39
2022-11-28T09:12:39.057Z,76.81
2022-11-28T09:13:39.059Z,77.34
2022-11-28T09:14:39.064Z,77.68
2022-11-28T09:15:39.059Z,76.83
2022-11-28T09:16:39.151Z,77.15
2022-11-28T09:17:39.054Z,77.31
2022-11-28T09:18:39.059Z,76.6
2022-11-28T09:19:39.057Z,75.99
2022-11-28T09:20:39.066Z,76.62
2022-11-28T09:21:39.059Z,76.76
2022-11-28T09:22:39.079Z,76.23
2022-11-28T09:23:39.054Z,75.84
2022-11-28T09:24:39.050Z,76.35
2022-11-28T09:25:39.066Z,75.94
2022-11-28T09:26:39.059Z,75.9
2022-11-28T09:27:39.056Z,76.22
2022-11-28T09:28:39.059Z,77.06
2022-11-28T09:29:39.064Z,76.03
2022-11-28T09:30:39.107Z,76.33
2022-11-28T09:31:42.004Z,76.52
2022-11-28T09:32:39.200Z,76.24
2022-11-28T09:33:39.063Z,75.82
2022-11-28T09:34:39.051Z,76.44
2022-11-28T09:35:39.072Z,76.29
2022-11-28T09:36:39.062Z,76.51
2022-11-28T09:37:39.056Z,76.75
2022-11-28T09:38:39.053Z,76.27
2022-11-28T09:39:57.045Z,75.81
2022-11-28T09:40:39.068Z,76.43
2022-11-28T09:41:39.056Z,75.75
2022-11-28T09:42:39.066Z,75.02
2022-11-28T09:44:42.225Z,76.6
2022-11-28T09:45:40.792Z,76.44
2022-11-28T09:46:40.791Z,76.74
2022-11-28T09:47:40.708Z,76.52
2022-11-28T09:48:40.716Z,76.19
2022-11-28T09:49:41.437Z,76.76
2022-11-28T09:50:40.731Z,75.9
2022-11-28T09:51:40.730Z,76.33
2022-11-28T09:52:40.825Z,76.5
2022-11-28T09:53:40.714Z,76.07
2022-11-28T09:54:40.712Z,76.07
2022-11-28T09:55:40.826Z,76.45
2022-11-28T09:56:40.722Z,76.19
2022-11-28T09:57:40.724Z,75.83
2022-11-28T09:58:40.719Z,74.75
2022-11-28T09:59:41.090Z,75
2022-11-28T10:00:40.910Z,75.87
2022-11-28T10:01:40.716Z,75.45
2022-11-28T10:02:40.730Z,76.6
2022-11-28T10:03:40.841Z,75.63
2022-11-28T10:04:40.820Z,75.79
2022-11-28T10:05:40.731Z,75.4
2022-11-28T10:06:40.715Z,75.63
2022-11-28T10:07:40.760Z,75.63
2022-11-28T10:08:40.708Z,75.63
2022-11-28T10:09:40.987Z,75.98
2022-11-28T10:10:40.732Z,76.49
2022-11-28T10:11:40.714Z,76.19
2022-11-28T10:12:40.718Z,74.95
2022-11-28T10:14:05.929Z,74.96
2022-11-28T10:14:40.716Z,75.49
2022-11-28T10:15:40.802Z,74.83
2022-11-28T10:16:40.822Z,74.69
2022-11-28T10:17:40.720Z,75.37
2022-11-28T10:18:40.701Z,75.23
2022-11-28T10:19:53.718Z,74.25
2022-11-28T10:20:41.094Z,74.25
2022-11-28T10:21:40.728Z,74.15
2022-11-28T10:22:40.773Z,74.97
2022-11-28T10:23:40.709Z,75.84
2022-11-28T10:24:40.711Z,75.95
2022-11-28T10:25:40.806Z,75.95
2022-11-28T10:26:40.697Z,74.69
2022-11-28T10:27:40.688Z,74.69
2022-11-28T10:28:40.699Z,74.81
2022-11-28T10:29:41.112Z,74.6
2022-11-28T10:30:40.814Z,75.16
2022-11-28T10:31:40.695Z,75.16
2022-11-28T10:32:40.701Z,73.95
2022-11-28T10:33:40.715Z,74.8
2022-11-28T10:34:40.704Z,75.31
2022-11-28T10:35:40.725Z,74.83
2022-11-28T10:36:40.687Z,74.57
2022-11-28T10:37:40.695Z,75.28
2022-11-28T10:38:40.690Z,75.28
2022-11-28T10:39:40.826Z,74.44
2022-11-28T10:40:40.747Z,74.61
2022-11-28T10:41:40.689Z,75.05
2022-11-28T10:42:40.694Z,75.65
2022-11-28T10:43:40.696Z,74.6
2022-11-28T10:44:40.692Z,73.99
2022-11-28T10:45:40.795Z,75.12
2022-11-28T10:46:40.768Z,76.4
2022-11-28T10:47:40.728Z,75.42
2022-11-28T10:48:41.269Z,75.76
2022-11-28T10:49:41.105Z,74.41
2022-11-28T10:50:40.728Z,74.41
2022-11-28T10:51:40.719Z,75.43
2022-11-28T10:52:41.021Z,74.97
2022-11-28T10:53:40.714Z,75.6
2022-11-28T10:54:40.752Z,75.21
2022-11-28T10:55:40.784Z,75.13
2022-11-28T10:56:40.712Z,74.47
2022-11-28T10:57:40.704Z,74.96
2022-11-28T10:58:40.703Z,75.11
2022-11-28T10:59:41.000Z,75.84
2022-11-28T11:00:40.714Z,75.84
2022-11-28T11:01:42.112Z,76.22
2022-11-28T11:02:40.721Z,75.36
2022-11-28T11:03:40.709Z,75.74
2022-11-28T11:04:40.886Z,75.7
2022-11-28T11:05:40.722Z,76.42
2022-11-28T11:06:47.616Z,76.06
2022-11-28T11:07:40.756Z,75.33
2022-11-28T11:08:40.708Z,74.61
2022-11-28T11:09:41.132Z,75.22
2022-11-28T11:10:40.724Z,75.22
2022-11-28T11:11:40.703Z,73.23
2022-11-28T11:12:40.702Z,73.25
2022-11-28T11:13:40.709Z,73.54
2022-11-28T11:14:40.737Z,74.17
2022-11-28T11:15:40.768Z,74.67
2022-11-28T11:16:40.715Z,74.29
2022-11-28T11:17:40.690Z,73.94
2022-11-28T11:18:40.699Z,73.88
2022-11-28T11:19:41.504Z,74.32
2022-11-28T11:20:40.729Z,74.32
2022-11-28T11:21:40.707Z,74.59
2022-11-28T11:22:41.024Z,74.24
2022-11-28T11:23:40.711Z,74.12
2022-11-28T11:24:40.714Z,74.5
2022-11-28T11:25:40.716Z,74.64
2022-11-28T11:26:40.710Z,74.56
2022-11-28T11:27:40.705Z,73.68
2022-11-28T11:28:40.739Z,73.93
2022-11-28T11:29:41.220Z,74.09
2022-11-28T11:30:40.768Z,74.09
2022-11-28T11:31:40.704Z,74.8
2022-11-28T11:32:40.706Z,75.02
2022-11-28T11:33:40.691Z,74.24
2022-11-28T11:34:40.699Z,74.68
2022-11-28T11:35:40.722Z,74.73
2022-11-28T11:36:40.821Z,74.87
2022-11-28T11:37:40.692Z,75.65
2022-11-28T11:38:40.695Z,74.81
2022-11-28T11:39:41.154Z,75.27
2022-11-28T11:40:40.754Z,75.08
2022-11-28T11:41:40.696Z,75.7
2022-11-28T11:42:40.696Z,75.57
2022-11-28T11:43:40.705Z,74.94
2022-11-28T11:44:40.895Z,74.37
2022-11-28T11:45:40.730Z,74.89
2022-11-28T11:46:40.866Z,74.76
2022-11-28T11:47:40.959Z,75.27
2022-11-28T11:48:40.689Z,75.33
2022-11-28T11:49:41.034Z,75.73
2022-11-28T11:50:40.708Z,75.8
2022-11-28T11:51:40.720Z,74.7
2022-11-28T11:52:41.125Z,74.94
2022-11-28T11:53:40.722Z,75
2022-11-28T11:54:40.708Z,75.56
2022-11-28T11:55:40.722Z,75.53
2022-11-28T11:56:40.785Z,75.46
2022-11-28T11:57:41.099Z,75.09
2022-11-28T11:58:40.708Z,75.94
2022-11-28T11:59:41.070Z,74.76
2022-11-28T12:00:40.730Z,74.76
2022-11-28T12:01:40.702Z,74.39
2022-11-28T12:02:41.129Z,75.11
2022-11-28T12:03:40.934Z,74.89
2022-11-28T12:04:47.125Z,75.21
2022-11-28T12:06:06.201Z,75.34
2022-11-28T12:06:40.715Z,75.34
2022-11-28T12:07:41.067Z,74.77
2022-11-28T12:08:40.703Z,73.83
2022-11-28T12:09:40.700Z,74.47
2022-11-28T12:10:40.736Z,74.47
2022-11-28T12:11:45.627Z,74.93
2022-11-28T12:12:40.718Z,74.93
2022-11-28T12:13:40.699Z,75.11
2022-11-28T12:14:40.706Z,74.17
2022-11-28T12:15:40.784Z,73.54
2022-11-28T12:16:40.783Z,74.18
2022-11-28T12:17:48.925Z,74.76
2022-11-28T12:18:40.708Z,74.44
2022-11-28T12:19:40.709Z,73.99
2022-11-28T12:20:40.719Z,73.99
2022-11-28T12:21:40.709Z,74.44
2022-11-28T12:22:40.700Z,75.07
2022-11-28T12:23:40.715Z,73.8
2022-11-28T12:24:40.712Z,73.38
2022-11-28T12:25:40.721Z,73.95
2022-11-28T12:26:40.694Z,73.67
2022-11-28T12:27:40.717Z,72.93
2022-11-28T12:28:40.719Z,74.07
2022-11-28T12:29:40.712Z,73.8
2022-11-28T12:30:43.433Z,73.8
2022-11-28T12:31:40.779Z,74.53
2022-11-28T12:32:40.699Z,75.03
2022-11-28T12:33:40.721Z,74.59
2022-11-28T12:34:40.716Z,74.77
2022-11-28T12:35:40.711Z,74.31
2022-11-28T12:36:40.705Z,74.68
2022-11-28T12:38:03.018Z,74.68
2022-11-28T12:38:40.689Z,74.97
2022-11-28T12:39:40.748Z,74.97
2022-11-28T12:40:40.729Z,74.09
2022-11-28T12:41:40.793Z,74.18
2022-11-28T12:42:40.772Z,74.15
2022-11-28T12:43:40.701Z,74.58
2022-11-28T12:44:40.693Z,73.99
2022-11-28T12:45:40.698Z,74.87
2022-11-28T12:46:40.797Z,73.71
2022-11-28T12:47:40.681Z,73.49
2022-11-28T12:48:40.696Z,73.6
2022-11-28T12:49:40.691Z,73.96
2022-11-28T12:50:40.738Z,74.72
2022-11-28T12:51:40.697Z,74.23
2022-11-28T12:52:40.691Z,74.18
2022-11-28T12:53:40.707Z,74.57
2022-11-28T12:54:40.696Z,74.58
2022-11-28T12:55:40.719Z,73.81
2022-11-28T12:56:40.727Z,73.91